createdAt,value
2023-02-27T00:00:14.972Z,13.40
2023-02-27T00:02:44.157Z,13.40
2023-02-27T00:05:11.079Z,13.50
2023-02-27T00:07:37.900Z,13.40
2023-02-27T00:10:07.027Z,13.40
2023-02-27T00:12:37.745Z,13.40
2023-02-27T00:15:24.898Z,13.40
2023-02-27T00:17:51.728Z,13.40
2023-02-27T00:20:19.773Z,13.40
2023-02-27T00:22:46.901Z,13.40
2023-02-27T00:25:14.057Z,13.40
2023-02-27T00:27:41.697Z,13.40
2023-02-27T00:30:11.496Z,13.40
2023-02-27T00:32:38.287Z,13.40
2023-02-27T00:35:06.857Z,13.30
2023-02-27T00:37:34.662Z,13.30
2023-02-27T00:40:02.237Z,13.30
2023-02-27T00:42:30.901Z,13.30
2023-02-27T00:44:58.065Z,13.70
2023-02-27T00:47:24.986Z,13.30
2023-02-27T00:49:51.721Z,13.50
2023-02-27T00:52:18.425Z,13.30
2023-02-27T00:54:45.156Z,13.40
2023-02-27T00:57:11.975Z,13.40
2023-02-27T00:59:38.857Z,13.30
2023-02-27T01:02:05.680Z,13.40
2023-02-27T01:04:32.504Z,14.80
2023-02-27T01:06:59.482Z,14.80
2023-02-27T01:09:26.343Z,12.60
2023-02-27T01:11:53.395Z,14.40
2023-02-27T01:14:20.232Z,14.80
2023-02-27T01:16:47.015Z,14.60
2023-02-27T01:19:13.744Z,14.60
2023-02-27T01:21:42.081Z,14.50
2023-02-27T01:24:10.148Z,14.70
2023-02-27T01:26:37.205Z,14.90
2023-02-27T01:29:06.323Z,13.70
2023-02-27T01:31:33.777Z,14.10
2023-02-27T01:34:00.714Z,14.60
2023-02-27T01:36:27.678Z,14.40
2023-02-27T01:38:54.498Z,15.20
2023-02-27T01:41:21.308Z,15.30
2023-02-27T01:44:06.367Z,15.30
2023-02-27T01:46:34.098Z,15.20
2023-02-27T01:49:07.698Z,15.70
2023-02-27T01:51:45.973Z,16.20
2023-02-27T01:54:17.595Z,14.60
2023-02-27T01:56:44.874Z,15.30
2023-02-27T01:59:12.790Z,14.90
2023-02-27T02:01:39.968Z,15.20
2023-02-27T02:04:29.732Z,15.20
2023-02-27T02:07:17.979Z,15.20
2023-02-27T02:09:49.028Z,14.60
2023-02-27T02:12:18.771Z,14.60
2023-02-27T02:14:45.777Z,14.90
2023-02-27T02:17:20.907Z,15.30
2023-02-27T02:20:29.323Z,15.40
2023-02-27T02:23:14.116Z,15.90
2023-02-27T02:26:08.769Z,16.20
2023-02-27T02:28:55.727Z,17.30
2023-02-27T02:31:42.327Z,17.30
2023-02-27T02:34:17.990Z,17.30
2023-02-27T02:36:47.800Z,17.20
2023-02-27T02:39:20.813Z,16.60
2023-02-27T02:42:08.799Z,16.30
2023-02-27T02:44:35.529Z,16.40
2023-02-27T02:47:10.799Z,16.70
2023-02-27T02:49:45.736Z,15.90
2023-02-27T02:52:24.917Z,15.90
2023-02-27T02:55:14.016Z,16.20
2023-02-27T02:57:45.921Z,15.80
2023-02-27T03:00:18.720Z,15.10
2023-02-27T03:02:52.035Z,15.00
2023-02-27T03:05:32.021Z,14.60
2023-02-27T03:08:16.437Z,13.40
2023-02-27T03:10:49.694Z,14.50
2023-02-27T03:13:24.866Z,11.20
2023-02-27T03:16:13.624Z,10.00
2023-02-27T03:18:56.682Z,9.60
2023-02-27T03:21:44.233Z,7.80
2023-02-27T03:24:16.816Z,7.90
2023-02-27T03:26:46.464Z,8.00
2023-02-27T03:29:21.620Z,8.00
2023-02-27T03:31:58.184Z,7.90
2023-02-27T03:34:32.789Z,8.00
2023-02-27T03:37:31.811Z,8.00
2023-02-27T03:40:16.809Z,8.00
2023-02-27T03:43:31.487Z,8.20
2023-02-27T03:46:08.986Z,6.50
2023-02-27T03:48:36.320Z,7.30
2023-02-27T03:51:03.782Z,7.30
2023-02-27T03:53:37.575Z,6.70
2023-02-27T03:56:07.783Z,7.00
2023-02-27T03:58:35.445Z,6.90
2023-02-27T04:01:02.419Z,6.90
2023-02-27T04:03:32.903Z,6.10
2023-02-27T04:06:19.739Z,6.80
2023-02-27T04:09:04.750Z,7.00
2023-02-27T04:11:35.015Z,7.00
2023-02-27T04:14:20.107Z,7.10
2023-02-27T04:17:16.228Z,7.10
2023-02-27T04:20:10.929Z,6.90
2023-02-27T04:22:44.503Z,7.20
2023-02-27T04:25:26.977Z,7.20
2023-02-27T04:27:58.880Z,7.40
2023-02-27T04:30:44.395Z,7.20
2023-02-27T04:33:18.977Z,7.10
2023-02-27T04:36:15.011Z,8.20
2023-02-27T04:38:51.357Z,6.70
2023-02-27T04:41:25.576Z,6.40
2023-02-27T04:43:54.539Z,6.90
2023-02-27T04:46:25.405Z,8.30
2023-02-27T04:49:20.065Z,10.90
2023-02-27T04:52:03.142Z,13.20
2023-02-27T04:54:41.840Z,13.10
2023-02-27T04:57:14.126Z,15.70
2023-02-27T04:59:45.280Z,17.40
2023-02-27T05:02:27.237Z,18.00
2023-02-27T05:04:58.337Z,18.80
2023-02-27T05:07:33.550Z,19.70
2023-02-27T05:10:05.999Z,20.20
2023-02-27T05:12:41.734Z,20.50
2023-02-27T05:15:18.802Z,20.40
2023-02-27T05:18:06.230Z,21.00
2023-02-27T05:20:52.933Z,21.40
2023-02-27T05:23:44.592Z,21.90
2023-02-27T05:26:11.393Z,21.70
2023-02-27T05:29:03.057Z,22.70
2023-02-27T05:31:49.531Z,22.20
2023-02-27T05:34:35.176Z,22.60
2023-02-27T05:37:28.666Z,23.40
2023-02-27T05:40:01.688Z,23.00
2023-02-27T05:42:36.853Z,23.40
2023-02-27T05:45:17.978Z,23.00
2023-02-27T05:47:52.768Z,23.40
2023-02-27T05:50:26.920Z,23.00
2023-02-27T05:52:57.889Z,22.80
2023-02-27T05:55:33.983Z,22.60
2023-02-27T05:58:09.580Z,23.70
2023-02-27T06:00:45.855Z,23.30
2023-02-27T06:03:13.442Z,23.60
2023-02-27T06:05:42.491Z,23.70
2023-02-27T06:08:09.824Z,23.60
2023-02-27T06:10:37.108Z,23.60
2023-02-27T06:13:04.287Z,23.60
2023-02-27T06:15:31.141Z,23.40
2023-02-27T06:17:57.956Z,23.30
2023-02-27T06:20:24.803Z,22.90
2023-02-27T06:22:51.662Z,23.10
2023-02-27T06:25:18.680Z,23.00
2023-02-27T06:27:45.463Z,23.00
2023-02-27T06:30:12.696Z,22.90
2023-02-27T06:32:39.734Z,23.00
2023-02-27T06:35:07.497Z,23.30
2023-02-27T06:37:34.565Z,23.10
2023-02-27T06:40:01.374Z,23.60
2023-02-27T06:42:28.097Z,23.50
2023-02-27T06:44:54.991Z,23.50
2023-02-27T06:47:21.793Z,23.60
2023-02-27T06:49:49.097Z,24.20
2023-02-27T06:52:16.071Z,24.40
2023-02-27T06:54:42.830Z,24.20
2023-02-27T06:57:09.622Z,24.30
2023-02-27T06:59:36.429Z,24.60
2023-02-27T07:02:03.193Z,25.30
2023-02-27T07:04:29.964Z,26.40
2023-02-27T07:07:33.797Z,26.00
2023-02-27T07:09:43.625Z,26.20
2023-02-27T07:12:10.623Z,26.10
2023-02-27T07:14:37.395Z,26.60
2023-02-27T07:17:04.626Z,26.80
2023-02-27T07:19:33.654Z,26.80
2023-02-27T07:22:00.399Z,27.00
2023-02-27T07:24:27.208Z,26.90
2023-02-27T07:26:55.033Z,27.10
2023-02-27T07:29:21.840Z,27.00
2023-02-27T07:31:48.660Z,26.70
2023-02-27T07:34:16.026Z,26.90
2023-02-27T07:36:43.461Z,27.30
2023-02-27T07:39:12.130Z,27.10
2023-02-27T07:41:39.064Z,27.20
2023-02-27T07:44:07.070Z,27.10
2023-02-27T07:46:34.101Z,26.40
2023-02-27T07:49:00.931Z,25.90
2023-02-27T07:51:28.191Z,26.10
2023-02-27T07:53:59.397Z,26.00
2023-02-27T07:56:27.494Z,26.20
2023-02-27T07:58:54.451Z,26.10
2023-02-27T08:01:21.293Z,26.10
2023-02-27T08:03:48.034Z,25.70
2023-02-27T08:06:14.795Z,25.40
2023-02-27T08:08:42.156Z,25.10
2023-02-27T08:11:09.147Z,25.10
2023-02-27T08:13:59.568Z,24.20
2023-02-27T08:16:22.822Z,23.90
2023-02-27T08:18:49.603Z,24.40
2023-02-27T08:21:16.361Z,23.70
2023-02-27T08:23:43.087Z,24.00
2023-02-27T08:26:09.858Z,22.10
2023-02-27T08:28:36.699Z,21.40
2023-02-27T08:31:03.611Z,21.90
2023-02-27T08:33:30.484Z,21.90
2023-02-27T08:35:57.487Z,20.60
2023-02-27T08:38:26.296Z,19.30
2023-02-27T08:41:12.213Z,17.70
2023-02-27T08:43:38.910Z,19.20
2023-02-27T08:46:05.986Z,16.00
2023-02-27T08:48:32.780Z,15.90
2023-02-27T08:50:59.589Z,14.80
2023-02-27T08:53:28.252Z,13.50
2023-02-27T08:55:55.169Z,13.60
2023-02-27T08:58:21.965Z,16.20
2023-02-27T09:00:48.742Z,13.80
2023-02-27T09:03:15.763Z,13.70
2023-02-27T09:05:42.969Z,14.00
2023-02-27T09:08:09.877Z,10.50
2023-02-27T09:10:36.712Z,10.70
2023-02-27T09:13:03.618Z,12.30
2023-02-27T09:15:31.837Z,12.10
2023-02-27T09:18:03.133Z,11.60
2023-02-27T09:20:31.713Z,9.60
2023-02-27T09:22:59.411Z,10.80
2023-02-27T09:25:27.350Z,11.60
2023-02-27T09:27:54.607Z,10.30
2023-02-27T09:30:21.813Z,10.50
2023-02-27T09:32:48.901Z,10.20
2023-02-27T09:35:16.044Z,8.90
2023-02-27T09:37:44.091Z,10.00
2023-02-27T09:40:29.534Z,8.00
2023-02-27T09:43:20.689Z,7.20
2023-02-27T09:45:54.396Z,7.30
2023-02-27T09:48:32.240Z,8.50
2023-02-27T09:51:00.173Z,8.40
2023-02-27T09:53:31.399Z,8.50
2023-02-27T09:56:18.458Z,7.80
2023-02-27T09:58:51.995Z,5.80
2023-02-27T10:01:28.213Z,7.20
2023-02-27T10:04:13.324Z,7.00
2023-02-27T10:06:50.168Z,6.50
2023-02-27T10:09:32.100Z,3.30
2023-02-27T10:12:20.916Z,3.30
2023-02-27T10:15:18.132Z,3.20
2023-02-27T10:17:55.804Z,4.30
2023-02-27T10:20:32.224Z,2.90
2023-02-27T10:23:04.164Z,2.00
2023-02-27T10:25:39.026Z,1.00
2023-02-27T10:28:14.434Z,1.00
2023-02-27T10:30:43.589Z,1.00
2023-02-27T10:33:15.213Z,1.00
2023-02-27T10:35:45.037Z,1.00
2023-02-27T10:38:22.197Z,1.00
2023-02-27T10:40:49.396Z,1.00
2023-02-27T10:43:19.217Z,1.00
2023-02-27T10:45:46.132Z,1.00
2023-02-27T10:48:13.287Z,1.00
2023-02-27T10:50:43.173Z,1.00
2023-02-27T10:53:28.137Z,1.00
2023-02-27T10:56:04.127Z,1.00
2023-02-27T10:58:34.855Z,1.00
2023-02-27T11:01:08.101Z,1.00
2023-02-27T11:03:41.194Z,1.00
2023-02-27T11:06:35.103Z,1.00
2023-02-27T11:09:22.612Z,1.00
2023-02-27T11:11:50.826Z,1.00
2023-02-27T11:14:25.116Z,1.00
2023-02-27T11:16:58.025Z,1.00
2023-02-27T11:19:39.425Z,1.00
2023-02-27T11:22:21.439Z,1.00
2023-02-27T11:24:48.271Z,1.00
2023-02-27T11:27:32.289Z,1.00
2023-02-27T11:30:05.032Z,1.00
2023-02-27T11:32:48.858Z,1.00
2023-02-27T11:35:35.062Z,1.00
2023-02-27T11:38:04.442Z,1.00
2023-02-27T11:40:40.515Z,1.00
2023-02-27T11:43:28.092Z,1.00
2023-02-27T11:46:14.628Z,1.00
2023-02-27T11:49:29.287Z,1.00
2023-02-27T11:52:07.925Z,1.00
2023-02-27T11:54:55.295Z,1.00
2023-02-27T11:57:50.364Z,1.00
2023-02-27T12:00:23.688Z,1.00
2023-02-27T12:03:02.279Z,1.00
2023-02-27T12:05:39.084Z,1.00
2023-02-27T12:08:42.227Z,1.00
2023-02-27T12:11:29.832Z,1.00
2023-02-27T12:14:36.117Z,1.00
2023-02-27T12:17:34.254Z,1.00
2023-02-27T12:20:13.655Z,1.00
2023-02-27T12:22:45.882Z,1.00
2023-02-27T12:25:42.194Z,1.00
2023-02-27T12:28:27.485Z,1.00
2023-02-27T12:31:19.945Z,1.00
2023-02-27T12:34:08.836Z,1.00
2023-02-27T12:36:35.696Z,1.00
2023-02-27T12:39:04.573Z,1.00
2023-02-27T12:41:59.674Z,1.00
2023-02-27T12:45:01.824Z,1.00
2023-02-27T12:47:37.209Z,1.00
2023-02-27T12:50:12.307Z,1.00
2023-02-27T12:52:45.825Z,1.00
2023-02-27T12:55:18.785Z,1.00
2023-02-27T12:57:48.685Z,1.00
2023-02-27T13:00:22.086Z,1.00
2023-02-27T13:03:05.217Z,1.00
2023-02-27T13:05:38.075Z,1.00
2023-02-27T13:08:29.617Z,1.00
2023-02-27T13:11:14.586Z,1.00
2023-02-27T13:14:06.799Z,1.00
2023-02-27T13:16:41.276Z,1.00
2023-02-27T13:19:55.142Z,1.00
2023-02-27T13:22:31.203Z,1.00
2023-02-27T13:25:01.946Z,1.00
2023-02-27T13:27:34.541Z,1.00
2023-02-27T13:30:05.209Z,1.00
2023-02-27T13:32:48.799Z,1.00
2023-02-27T13:35:36.245Z,1.00
2023-02-27T13:38:24.310Z,1.00
2023-02-27T13:40:51.088Z,1.00
2023-02-27T13:43:46.422Z,1.00
2023-02-27T13:46:26.495Z,1.00
2023-02-27T13:48:54.889Z,1.00
2023-02-27T13:51:37.423Z,1.00
2023-02-27T13:54:13.037Z,1.00
2023-02-27T13:56:47.334Z,1.00
2023-02-27T13:59:26.826Z,1.00
2023-02-27T14:02:02.857Z,1.00
2023-02-27T14:04:33.312Z,1.00
2023-02-27T14:07:07.369Z,1.00
2023-02-27T14:09:41.431Z,1.00
2023-02-27T14:12:39.070Z,1.00
2023-02-27T14:15:22.766Z,1.00
2023-02-27T14:17:56.833Z,1.00
2023-02-27T14:20:27.473Z,1.00
2023-02-27T14:23:21.363Z,1.00
2023-02-27T14:26:04.041Z,1.00
2023-02-27T14:28:36.105Z,1.00
2023-02-27T14:31:06.254Z,1.00
2023-02-27T14:33:48.508Z,1.00
2023-02-27T14:36:34.656Z,1.00
2023-02-27T14:39:04.290Z,1.00
2023-02-27T14:41:39.492Z,1.00
2023-02-27T14:44:17.636Z,1.00
2023-02-27T14:46:44.826Z,1.00
2023-02-27T14:49:22.403Z,1.00
2023-02-27T14:51:50.584Z,1.00
2023-02-27T14:54:26.038Z,1.00
2023-02-27T14:57:04.554Z,1.00
2023-02-27T14:59:36.836Z,1.00
2023-02-27T15:02:06.879Z,1.00
2023-02-27T15:04:34.007Z,1.00
2023-02-27T15:07:01.161Z,1.00
2023-02-27T15:09:44.719Z,1.00
2023-02-27T15:12:21.780Z,1.00
2023-02-27T15:14:56.934Z,1.00
2023-02-27T15:17:41.404Z,1.00
2023-02-27T15:20:29.704Z,1.00
2023-02-27T15:22:57.991Z,1.00
2023-02-27T15:25:33.974Z,1.00
2023-02-27T15:28:03.999Z,1.00
2023-02-27T15:30:31.620Z,1.00
2023-02-27T15:32:59.244Z,1.00
2023-02-27T15:35:32.050Z,1.00
2023-02-27T15:38:00.337Z,1.00
2023-02-27T15:40:30.388Z,1.00
2023-02-27T15:42:59.476Z,1.00
2023-02-27T15:45:31.982Z,1.00
2023-02-27T15:47:59.231Z,1.00
2023-02-27T15:50:36.556Z,1.00
2023-02-27T15:53:22.331Z,1.00
2023-02-27T15:56:12.961Z,1.00
2023-02-27T15:58:50.638Z,1.00
2023-02-27T16:01:23.361Z,1.00
2023-02-27T16:03:54.993Z,1.00
2023-02-27T16:06:24.957Z,1.00
2023-02-27T16:09:04.349Z,1.00
2023-02-27T16:11:35.547Z,1.00
2023-02-27T16:14:03.010Z,1.00
2023-02-27T16:16:35.393Z,1.00
2023-02-27T16:19:26.990Z,1.00
2023-02-27T16:22:27.283Z,1.00
2023-02-27T16:24:56.118Z,1.00
2023-02-27T16:27:28.045Z,1.00
2023-02-27T16:30:01.545Z,1.00
2023-02-27T16:32:33.445Z,1.00
2023-02-27T16:35:05.903Z,1.00
2023-02-27T16:37:39.721Z,1.00
2023-02-27T16:40:14.708Z,1.00
2023-02-27T16:42:42.035Z,1.00
2023-02-27T16:45:15.128Z,1.00
2023-02-27T16:47:42.258Z,1.00
2023-02-27T16:50:20.631Z,1.00
2023-02-27T16:52:47.768Z,1.00
2023-02-27T16:55:14.730Z,1.00
2023-02-27T16:57:41.605Z,1.00
2023-02-27T17:00:12.471Z,1.00
2023-02-27T17:02:39.320Z,1.00
2023-02-27T17:05:06.757Z,1.00
2023-02-27T17:07:35.112Z,1.00
2023-02-27T17:10:02.094Z,1.00
2023-02-27T17:12:28.813Z,1.00
2023-02-27T17:14:56.328Z,1.00
2023-02-27T17:17:23.140Z,1.00
2023-02-27T17:19:50.020Z,1.00
2023-02-27T17:22:17.041Z,1.00
2023-02-27T17:24:43.853Z,1.00
2023-02-27T17:27:10.648Z,1.00
2023-02-27T17:29:38.685Z,1.00
2023-02-27T17:32:06.420Z,1.00
2023-02-27T17:34:33.359Z,1.00
2023-02-27T17:37:00.183Z,1.00
2023-02-27T17:39:27.138Z,1.00
2023-02-27T17:41:54.464Z,1.00
2023-02-27T17:44:21.507Z,1.00
2023-02-27T17:46:48.364Z,1.00
2023-02-27T17:49:15.336Z,1.00
2023-02-27T17:51:42.163Z,1.00
2023-02-27T17:54:08.996Z,1.00
2023-02-27T17:56:37.018Z,1.00
2023-02-27T17:59:04.732Z,1.00
2023-02-27T18:01:31.700Z,1.00
2023-02-27T18:03:58.520Z,1.00
2023-02-27T18:06:26.110Z,1.00
2023-02-27T18:08:53.140Z,1.00
2023-02-27T18:11:21.549Z,1.00
2023-02-27T18:13:48.945Z,1.00
2023-02-27T18:16:16.198Z,1.00
2023-02-27T18:18:43.596Z,1.00
2023-02-27T18:21:20.514Z,1.00
2023-02-27T18:23:48.612Z,1.00
2023-02-27T18:26:28.932Z,1.00
2023-02-27T18:29:09.045Z,1.00
2023-02-27T18:31:39.758Z,1.00
2023-02-27T18:34:07.737Z,1.00
2023-02-27T18:36:36.906Z,1.00
2023-02-27T18:39:05.156Z,1.00
2023-02-27T18:41:32.395Z,1.00
2023-02-27T18:43:59.473Z,1.00
2023-02-27T18:46:26.994Z,1.00
2023-02-27T18:48:54.278Z,1.00
2023-02-27T18:51:22.109Z,1.00
2023-02-27T18:53:50.182Z,1.00
2023-02-27T18:56:20.813Z,1.00
2023-02-27T18:58:49.165Z,1.00
2023-02-27T19:01:22.858Z,1.00
2023-02-27T19:03:50.345Z,1.00
2023-02-27T19:06:17.529Z,1.00
2023-02-27T19:08:44.434Z,1.00
2023-02-27T19:11:20.196Z,1.00
2023-02-27T19:13:47.543Z,1.00
2023-02-27T19:16:15.286Z,1.00
2023-02-27T19:18:42.218Z,1.00
2023-02-27T19:21:09.722Z,1.00
2023-02-27T19:23:36.709Z,1.00
2023-02-27T19:26:03.855Z,1.00
2023-02-27T19:28:30.806Z,1.00
2023-02-27T19:30:58.449Z,1.00
2023-02-27T19:33:25.686Z,1.00
2023-02-27T19:35:52.837Z,1.00
2023-02-27T19:38:20.229Z,1.00
2023-02-27T19:40:47.289Z,1.00
2023-02-27T19:43:15.530Z,1.00
2023-02-27T19:45:42.706Z,1.00
2023-02-27T19:48:11.384Z,1.00
2023-02-27T19:50:40.357Z,1.00
2023-02-27T19:53:07.391Z,1.00
2023-02-27T19:55:34.678Z,1.00
2023-02-27T19:58:01.696Z,1.00
2023-02-27T20:00:29.589Z,1.00
2023-02-27T20:02:57.009Z,1.00
2023-02-27T20:05:24.715Z,1.00
2023-02-27T20:07:53.076Z,1.00
2023-02-27T20:10:20.134Z,1.00
2023-02-27T20:12:47.586Z,1.00
2023-02-27T20:15:14.554Z,1.00
2023-02-27T20:17:42.220Z,1.00
2023-02-27T20:20:10.322Z,1.00
2023-02-27T20:22:38.344Z,1.00
2023-02-27T20:25:06.164Z,1.00
2023-02-27T20:27:34.851Z,1.00
2023-02-27T20:30:01.973Z,1.00
2023-02-27T20:32:29.025Z,1.00
2023-02-27T20:34:56.789Z,1.00
2023-02-27T20:37:23.910Z,1.00
2023-02-27T20:39:51.284Z,1.00
2023-02-27T20:42:18.194Z,1.00
2023-02-27T20:44:45.254Z,1.00
2023-02-27T20:47:12.310Z,1.00
2023-02-27T20:49:39.414Z,1.00
2023-02-27T20:52:06.511Z,1.00
2023-02-27T20:54:33.512Z,1.00
2023-02-27T20:57:00.447Z,1.00
2023-02-27T20:59:27.634Z,1.00
2023-02-27T21:01:55.472Z,1.00
2023-02-27T21:04:43.496Z,1.00
2023-02-27T21:07:16.504Z,1.00
2023-02-27T21:09:43.700Z,1.00
2023-02-27T21:12:11.460Z,1.00
2023-02-27T21:14:38.481Z,1.00
2023-02-27T21:17:06.126Z,1.00
2023-02-27T21:19:33.349Z,1.00
2023-02-27T21:22:00.489Z,1.00
2023-02-27T21:24:27.378Z,1.00
2023-02-27T21:26:54.706Z,1.00
2023-02-27T21:29:21.937Z,1.00
2023-02-27T21:31:50.170Z,1.00
2023-02-27T21:34:23.330Z,1.00
2023-02-27T21:36:52.127Z,1.00
2023-02-27T21:39:22.081Z,1.00
2023-02-27T21:41:49.786Z,1.00
2023-02-27T21:44:19.646Z,1.00
2023-02-27T21:46:46.933Z,1.00
2023-02-27T21:49:28.528Z,1.00
2023-02-27T21:51:55.971Z,1.00
2023-02-27T21:54:23.346Z,1.00
2023-02-27T21:56:50.631Z,1.00
2023-02-27T21:59:19.081Z,1.00
2023-02-27T22:01:47.658Z,1.00
2023-02-27T22:04:15.773Z,1.00
2023-02-27T22:06:43.021Z,1.00
2023-02-27T22:09:10.029Z,1.00
2023-02-27T22:11:37.213Z,1.00
2023-02-27T22:14:05.722Z,1.00
2023-02-27T22:16:33.265Z,1.00
2023-02-27T22:19:04.431Z,1.00
2023-02-27T22:21:32.166Z,1.00
2023-02-27T22:23:59.321Z,1.00
2023-02-27T22:26:28.385Z,1.00
2023-02-27T22:28:57.207Z,1.00
2023-02-27T22:31:30.183Z,1.00
2023-02-27T22:34:02.028Z,1.00
2023-02-27T22:36:31.001Z,1.00
2023-02-27T22:38:58.137Z,1.00
2023-02-27T22:41:31.108Z,1.00
2023-02-27T22:44:00.414Z,1.00
2023-02-27T22:46:35.993Z,1.10
2023-02-27T22:49:05.958Z,1.00
2023-02-27T22:51:32.932Z,1.40
2023-02-27T22:54:03.096Z,1.50
2023-02-27T22:56:30.752Z,1.30
2023-02-27T22:58:58.355Z,1.80
2023-02-27T23:01:28.940Z,2.20
2023-02-27T23:03:58.565Z,1.90
2023-02-27T23:06:29.030Z,2.20
2023-02-27T23:08:56.442Z,1.70
2023-02-27T23:11:23.877Z,1.80
2023-02-27T23:13:51.558Z,1.70
2023-02-27T23:16:19.330Z,2.20
2023-02-27T23:18:47.706Z,3.20
2023-02-27T23:21:16.338Z,3.30
2023-02-27T23:23:43.576Z,3.30
2023-02-27T23:26:10.758Z,3.70
2023-02-27T23:28:38.359Z,3.80
2023-02-27T23:31:06.532Z,3.70
2023-02-27T23:33:33.672Z,4.00
2023-02-27T23:36:01.618Z,4.70
2023-02-27T23:38:29.233Z,4.60
2023-02-27T23:40:56.448Z,4.50
2023-02-27T23:43:23.877Z,5.30
2023-02-27T23:45:50.841Z,5.80
2023-02-27T23:48:17.858Z,6.40
2023-02-27T23:50:45.104Z,6.90
2023-02-27T23:53:16.075Z,6.50
2023-02-27T23:55:43.865Z,6.10
2023-02-27T23:58:11.473Z,6.00
